Time;durP1;ratioP1;P1;durP2;ratioP2;P2;SDS_P1;SDS_P2;PMS_P1;PMS_P2;Temp;Humidity;BMP_temperature;BMP_pressure;BME280_temperature;BME280_humidity;BME280_pressure;Samples;Min_cycle;Max_cycle;Signal;HPM_P1;HPM_P2
2022/04/30 00:00:31;;;;;;;50.60;45.20;;;;;;;6.72;50.86;98714.16;105479;1286;25465;-82
2022/04/30 00:03:02;;;;;;;49.90;44.60;;;;;;;6.53;51.22;98718.26;105739;1284;22484;-81
2022/04/30 00:05:32;;;;;;;48.30;42.90;;;;;;;6.37;51.46;98713.32;105914;1283;22674;-86
2022/04/30 00:08:06;;;;;;;50.40;45.30;;;;;;;6.22;51.88;98714.01;105786;1283;24236;-82
2022/04/30 00:10:37;;;;;;;47.10;42.50;;;;;;;6.07;51.84;98711.33;105494;1283;25220;-83
2022/04/30 00:13:10;;;;;;;46.90;42.30;;;;;;;5.97;52.14;98711.36;105781;1286;22541;-84
2022/04/30 00:15:39;;;;;;;48.80;44.10;;;;;;;5.89;52.55;98710.58;105638;1283;25485;-86
2022/04/30 00:18:08;;;;;;;36.00;32.50;;;;;;;5.82;52.26;98709.95;105696;1283;25366;-86
2022/04/30 00:20:38;;;;;;;31.80;28.50;;;;;;;5.77;52.45;98707.86;105621;1286;25523;-86
2022/04/30 00:23:19;;;;;;;31.30;28.20;;;;;;;5.73;52.59;98711.23;105694;1286;25298;-85
2022/04/30 00:25:49;;;;;;;36.00;32.30;;;;;;;5.68;52.46;98709.82;105599;1284;24292;-85
2022/04/30 00:28:22;;;;;;;33.80;30.30;;;;;;;5.62;52.78;98709.33;105597;1283;24309;-85
2022/04/30 00:30:50;;;;;;;31.90;28.50;;;;;;;5.56;52.62;98711.64;105584;1286;22560;-85
2022/04/30 00:33:18;;;;;;;28.90;24.60;;;;;;;5.48;52.81;98712.69;105595;1283;22555;-81
2022/04/30 00:35:46;;;;;;;25.20;22.80;;;;;;;5.43;52.72;98709.89;105659;1283;22573;-83
2022/04/30 00:38:15;;;;;;;25.10;22.40;;;;;;;5.43;52.91;98714.02;105233;1285;22580;-86
2022/04/30 00:40:43;;;;;;;21.30;19.10;;;;;;;5.43;53.01;98710.02;106230;1283;22694;-85
2022/04/30 00:43:11;;;;;;;21.70;19.70;;;;;;;5.44;53.11;98712.54;106782;1283;24806;-85
2022/04/30 00:45:48;;;;;;;19.90;17.70;;;;;;;5.37;52.67;98714.00;106069;1283;22802;-89
2022/04/30 00:48:17;;;;;;;20.30;17.90;;;;;;;5.26;52.89;98715.00;106531;1283;22553;-90
2022/04/30 00:50:45;;;;;;;33.10;30.10;;;;;;;5.14;53.25;98713.84;106216;1283;25425;-87
2022/04/30 00:53:17;;;;;;;22.40;20.20;;;;;;;5.03;53.42;98713.58;106742;1283;22582;-78
2022/04/30 00:55:47;;;;;;;22.60;20.20;;;;;;;4.95;53.67;98713.55;105777;1286;25287;-82
2022/04/30 00:58:18;;;;;;;24.20;21.70;;;;;;;4.89;53.72;98710.40;105272;1286;22724;-86
2022/04/30 01:00:49;;;;;;;26.10;23.20;;;;;;;4.83;53.94;98713.17;105367;1286;22618;-85
2022/04/30 01:03:27;;;;;;;23.90;21.60;;;;;;;4.79;54.21;98713.33;105295;1283;22556;-84
2022/04/30 01:06:06;;;;;;;20.80;18.80;;;;;;;4.74;54.23;98710.23;105386;1283;22630;-82
2022/04/30 01:08:36;;;;;;;20.20;18.20;;;;;;;4.63;54.29;98709.83;105365;1283;22594;-84
2022/04/30 01:11:05;;;;;;;21.70;19.50;;;;;;;4.47;54.29;98709.27;105334;1283;22675;-81
2022/04/30 01:13:36;;;;;;;23.50;21.10;;;;;;;4.32;54.39;98709.64;105398;1283;25427;-84
2022/04/30 01:16:08;;;;;;;24.90;21.80;;;;;;;4.21;54.81;98712.09;105716;1283;22569;-84
2022/04/30 01:18:37;;;;;;;23.60;20.90;;;;;;;4.12;55.17;98712.94;105549;1284;22698;-83
2022/04/30 01:21:12;;;;;;;23.80;21.30;;;;;;;4.06;55.87;98711.27;105620;1283;24441;-79
2022/04/30 01:23:44;;;;;;;20.40;18.40;;;;;;;4.00;55.93;98706.85;105667;1284;24415;-82
2022/04/30 01:26:17;;;;;;;18.60;16.50;;;;;;;3.94;55.94;98707.14;105153;1286;22656;-78
2022/04/30 01:28:46;;;;;;;20.40;18.40;;;;;;;3.87;56.25;98707.57;105264;1283;25523;-83
2022/04/30 01:39:34;;;;;;;16.10;14.30;;;;;;;3.45;56.36;98710.03;105611;1284;25366;-86
2022/04/30 01:42:11;;;;;;;17.60;15.70;;;;;;;3.33;56.67;98711.95;105948;1283;22572;-87
2022/04/30 01:44:42;;;;;;;18.80;17.00;;;;;;;3.22;56.71;98708.34;105726;1283;25375;-86
2022/04/30 01:47:11;;;;;;;15.70;14.10;;;;;;;3.08;56.63;98704.71;106552;1284;22580;-85
2022/04/30 01:49:39;;;;;;;15.40;13.80;;;;;;;2.96;56.63;98704.91;105557;1284;22546;-86
2022/04/30 01:52:08;;;;;;;14.60;13.10;;;;;;;2.89;57.23;98704.10;105834;1284;22693;-85
2022/04/30 01:54:36;;;;;;;16.20;13.50;;;;;;;2.87;57.72;98701.08;105558;1287;22800;-88
2022/04/30 01:57:05;;;;;;;14.80;11.60;;;;;;;2.85;57.71;98698.15;105317;1284;22563;-89
2022/04/30 01:59:34;;;;;;;12.20;11.00;;;;;;;2.84;57.85;98695.23;105199;1284;24474;-87
2022/04/30 02:02:03;;;;;;;12.80;11.50;;;;;;;2.81;57.93;98693.43;105137;1287;22564;-87
2022/04/30 02:04:34;;;;;;;12.70;11.30;;;;;;;2.77;58.04;98692.26;105567;1283;25517;-87
2022/04/30 02:07:02;;;;;;;14.40;12.40;;;;;;;2.69;57.95;98690.20;105447;1287;23980;-89
2022/04/30 02:09:32;;;;;;;13.90;12.10;;;;;;;2.62;58.18;98686.06;105480;1283;24018;-87
2022/04/30 02:12:01;;;;;;;16.50;12.50;;;;;;;2.55;58.71;98682.66;105267;1283;22595;-86
2022/04/30 02:14:30;;;;;;;12.20;10.90;;;;;;;2.54;58.63;98680.98;105287;1283;24329;-87
2022/04/30 02:17:00;;;;;;;15.80;14.20;;;;;;;2.57;58.77;98678.23;105233;1289;23983;-89
2022/04/30 02:22:19;;;;;;;15.30;12.20;;;;;;;2.63;58.61;98669.89;106606;1283;22573;-89
2022/04/30 02:24:49;;;;;;;14.00;12.60;;;;;;;2.63;58.81;98669.97;105563;1284;22888;-82
2022/04/30 02:27:17;;;;;;;14.20;12.90;;;;;;;2.60;58.82;98666.49;105425;1284;22625;-92
2022/04/30 02:29:45;;;;;;;15.50;13.80;;;;;;;2.55;58.90;98664.44;105507;1283;22535;-90
2022/04/30 02:32:13;;;;;;;15.80;14.30;;;;;;;2.47;58.85;98659.80;105586;1284;22645;-87
2022/04/30 02:34:41;;;;;;;17.90;16.30;;;;;;;2.40;59.04;98662.11;105228;1284;23733;-86
2022/04/30 02:37:14;;;;;;;17.10;15.60;;;;;;;2.35;59.20;98662.45;105204;1284;22618;-89
2022/04/30 02:39:44;;;;;;;17.80;16.00;;;;;;;2.31;59.55;98662.98;106140;1284;22681;-84
2022/04/30 02:42:13;;;;;;;18.90;13.80;;;;;;;2.33;59.58;98657.15;108469;1283;22584;-81
2022/04/30 02:44:41;;;;;;;23.20;20.90;;;;;;;2.37;59.79;98654.05;108642;1283;22548;-85
2022/04/30 02:47:10;;;;;;;15.50;14.00;;;;;;;2.41;59.71;98652.73;107082;1284;25206;-87
2022/04/30 02:49:38;;;;;;;16.40;14.50;;;;;;;2.47;60.03;98650.42;105682;1283;25943;-86
2022/04/30 02:52:07;;;;;;;14.60;13.00;;;;;;;2.50;59.79;98651.21;106316;1283;22648;-88
2022/04/30 02:54:35;;;;;;;21.20;19.20;;;;;;;2.49;59.74;98644.21;105795;1284;25389;-88
2022/04/30 02:57:03;;;;;;;16.90;15.20;;;;;;;2.47;60.10;98642.93;105388;1284;24259;-88
2022/04/30 03:02:23;;;;;;;16.60;15.10;;;;;;;2.32;59.72;98639.89;105106;1284;22506;-87
2022/04/30 03:04:53;;;;;;;26.10;23.80;;;;;;;2.21;60.32;98640.02;105260;1283;22695;-86
2022/04/30 03:07:22;;;;;;;15.30;13.70;;;;;;;2.17;60.48;98635.84;105139;1284;22624;-89
2022/04/30 03:09:50;;;;;;;13.10;11.50;;;;;;;2.25;60.36;98638.11;105435;1284;22549;-85
2022/04/30 03:12:18;;;;;;;14.00;12.60;;;;;;;2.32;60.51;98636.90;105164;1283;22569;-87
2022/04/30 03:14:46;;;;;;;19.20;17.10;;;;;;;2.35;60.56;98637.31;105163;1284;22795;-85
2022/04/30 03:22:48;;;;;;;27.80;25.30;;;;;;;2.31;60.50;98636.51;105175;1284;22579;-88
2022/04/30 03:25:17;;;;;;;34.50;27.10;;;;;;;2.21;60.54;98631.52;105165;1284;22664;-87
2022/04/30 03:27:45;;;;;;;30.40;27.70;;;;;;;2.15;60.89;98628.11;105170;1284;24361;-88
2022/04/30 03:30:13;;;;;;;38.10;34.90;;;;;;;2.11;60.99;98635.15;105256;1284;25019;-87
2022/04/30 03:32:42;;;;;;;25.00;22.70;;;;;;;2.08;61.05;98633.08;105176;1283;24428;-86
2022/04/30 03:35:10;;;;;;;21.10;19.30;;;;;;;2.03;61.15;98636.11;105155;1284;24346;-89
2022/04/30 03:37:38;;;;;;;19.40;17.40;;;;;;;2.03;61.04;98635.67;105564;1283;24422;-86
2022/04/30 03:40:08;;;;;;;18.80;17.10;;;;;;;2.05;61.77;98634.24;106036;1284;22708;-84
2022/04/30 03:42:35;;;;;;;19.50;17.70;;;;;;;2.11;61.85;98636.66;105670;1286;22840;-86
2022/04/30 03:45:04;;;;;;;20.20;18.30;;;;;;;2.17;62.03;98636.05;105282;1284;22674;-87
2022/04/30 03:47:32;;;;;;;21.70;19.70;;;;;;;2.25;62.07;98636.84;105149;1284;23474;-85
2022/04/30 03:50:00;;;;;;;24.90;22.80;;;;;;;2.32;62.13;98637.23;105146;1284;22631;-86
2022/04/30 03:52:30;;;;;;;22.40;20.10;;;;;;;2.39;62.19;98636.07;105045;1284;22629;-86
2022/04/30 03:54:59;;;;;;;21.10;19.10;;;;;;;2.42;61.99;98639.92;105140;1283;24227;-86
2022/04/30 03:57:28;;;;;;;22.70;20.70;;;;;;;2.41;62.09;98642.34;106290;1283;25631;-85
2022/04/30 03:59:56;;;;;;;40.10;36.50;;;;;;;2.41;62.13;98641.85;106711;1283;23577;-85
2022/04/30 04:02:24;;;;;;;34.50;31.60;;;;;;;2.45;62.07;98647.27;105410;1284;23296;-86
2022/04/30 04:04:53;;;;;;;26.00;23.60;;;;;;;2.51;62.02;98642.80;105177;1286;22587;-87
2022/04/30 04:07:21;;;;;;;52.30;47.80;;;;;;;2.56;61.93;98644.16;105116;1284;23694;-84
2022/04/30 04:09:49;;;;;;;40.40;36.60;;;;;;;2.62;62.12;98642.44;105110;1284;22894;-87
2022/04/30 04:12:17;;;;;;;26.10;23.90;;;;;;;2.67;62.27;98645.66;105119;1283;24355;-86
2022/04/30 04:17:38;;;;;;;15.30;14.00;;;;;;;2.84;62.78;98644.89;105150;1283;24443;-86
2022/04/30 04:20:13;;;;;;;17.30;15.70;;;;;;;2.95;62.88;98644.60;105142;1283;22553;-87
2022/04/30 04:22:41;;;;;;;15.90;13.50;;;;;;;3.06;62.72;98647.36;105200;1283;22856;-86
2022/04/30 04:27:58;;;;;;;15.10;13.70;;;;;;;3.39;63.08;98645.88;104976;1287;24448;-86
2022/04/30 04:30:29;;;;;;;17.10;15.50;;;;;;;3.59;63.14;98645.54;105189;1283;22724;-86
2022/04/30 04:32:58;;;;;;;18.30;14.90;;;;;;;3.77;63.30;98641.27;105007;1284;22990;-88
2022/04/30 04:35:27;;;;;;;14.80;13.20;;;;;;;3.96;63.14;98641.10;105148;1283;24352;-85
2022/04/30 04:37:54;;;;;;;12.40;11.20;;;;;;;4.15;63.31;98639.70;105322;1283;22679;-87
2022/04/30 04:40:22;;;;;;;12.70;11.50;;;;;;;4.35;63.04;98639.54;105168;1284;22743;-85
2022/04/30 04:42:50;;;;;;;13.20;11.90;;;;;;;4.56;62.85;98638.98;105194;1283;22745;-84
2022/04/30 04:45:18;;;;;;;14.00;12.50;;;;;;;4.75;62.69;98642.30;105179;1283;23981;-86
2022/04/30 04:47:49;;;;;;;11.80;10.60;;;;;;;4.96;62.87;98637.48;105130;1283;24370;-87
2022/04/30 04:50:18;;;;;;;11.60;10.40;;;;;;;5.15;62.78;98637.99;105021;1284;24438;-86
2022/04/30 04:52:47;;;;;;;12.10;9.80;;;;;;;5.36;62.47;98640.31;105234;1283;22883;-87
2022/04/30 04:55:15;;;;;;;9.70;8.70;;;;;;;5.59;62.53;98637.14;105092;1283;24034;-87
2022/04/30 04:57:43;;;;;;;13.70;12.30;;;;;;;5.84;62.14;98642.05;105216;1283;24307;-87
2022/04/30 05:00:12;;;;;;;17.30;15.30;;;;;;;6.08;62.25;98644.02;105200;1283;24304;-85
2022/04/30 05:02:40;;;;;;;19.10;17.10;;;;;;;6.29;62.22;98639.58;105212;1283;22562;-87
2022/04/30 05:05:08;;;;;;;14.80;12.80;;;;;;;6.48;62.06;98640.40;105124;1283;22563;-88
2022/04/30 05:07:36;;;;;;;13.40;12.00;;;;;;;6.66;61.99;98644.80;105200;1283;23942;-87
2022/04/30 05:10:05;;;;;;;14.30;12.90;;;;;;;6.83;61.87;98647.19;105155;1283;25331;-86
2022/04/30 05:12:32;;;;;;;16.80;15.20;;;;;;;7.00;61.78;98641.38;105140;1283;24428;-87
2022/04/30 05:15:00;;;;;;;17.80;14.70;;;;;;;7.15;61.79;98639.28;105351;1283;22632;-85
2022/04/30 05:17:28;;;;;;;25.70;23.10;;;;;;;7.31;61.74;98639.27;105182;1283;24313;-88
2022/04/30 05:19:56;;;;;;;35.10;31.80;;;;;;;7.45;61.65;98635.92;105146;1283;25379;-87
2022/04/30 05:22:24;;;;;;;26.70;23.80;;;;;;;7.61;61.66;98637.23;105307;1283;22634;-88
2022/04/30 05:24:52;;;;;;;25.70;23.20;;;;;;;7.76;61.79;98635.38;105128;1283;25653;-87
2022/04/30 05:27:19;;;;;;;19.50;17.20;;;;;;;7.91;61.47;98635.65;105168;1283;22597;-87
2022/04/30 05:29:48;;;;;;;17.30;15.60;;;;;;;8.05;61.40;98629.52;105406;1283;24324;-86
2022/04/30 05:32:16;;;;;;;17.10;15.40;;;;;;;8.17;61.24;98631.86;105329;1284;25325;-86
2022/04/30 05:34:43;;;;;;;18.20;15.10;;;;;;;8.29;61.21;98633.71;105273;1283;25389;-88
2022/04/30 05:37:12;;;;;;;18.40;15.40;;;;;;;8.39;60.90;98637.23;108115;1283;22501;-84
2022/04/30 05:39:40;;;;;;;17.90;16.00;;;;;;;8.52;60.98;98640.17;105726;1283;24180;-87
2022/04/30 05:42:08;;;;;;;19.30;17.30;;;;;;;8.64;60.88;98640.50;105301;1283;22547;-87
2022/04/30 05:44:36;;;;;;;25.10;22.70;;;;;;;8.76;60.94;98640.09;105185;1284;23265;-84
2022/04/30 05:47:04;;;;;;;21.80;19.70;;;;;;;8.90;60.88;98641.91;105132;1284;22625;-87
2022/04/30 05:49:32;;;;;;;23.40;21.10;;;;;;;9.01;60.65;98643.68;105144;1283;22659;-86
2022/04/30 05:51:59;;;;;;;24.20;20.50;;;;;;;9.13;60.46;98647.32;105120;1283;22563;-88
2022/04/30 05:54:28;;;;;;;23.00;20.70;;;;;;;9.24;60.73;98646.23;105156;1283;22851;-86
2022/04/30 05:56:56;;;;;;;22.00;19.90;;;;;;;9.36;60.35;98650.24;105134;1284;25445;-88
2022/04/30 05:59:24;;;;;;;22.80;19.80;;;;;;;9.47;60.15;98646.41;105167;1283;22556;-88
2022/04/30 06:01:51;;;;;;;22.90;19.90;;;;;;;9.60;60.18;98647.45;105269;1283;24381;-87
2022/04/30 06:04:21;;;;;;;25.80;21.40;;;;;;;9.71;59.94;98646.17;105136;1283;22576;-88
2022/04/30 06:06:48;;;;;;;23.30;20.80;;;;;;;9.83;59.70;98647.80;105162;1283;24395;-89
2022/04/30 06:09:19;;;;;;;21.10;18.90;;;;;;;9.93;59.68;98650.02;105427;1283;24267;-88
2022/04/30 06:11:47;;;;;;;21.50;19.40;;;;;;;10.06;59.59;98649.95;105135;1283;25425;-91
2022/04/30 06:14:15;;;;;;;21.30;19.10;;;;;;;10.19;59.34;98647.37;105220;1283;24386;-90
2022/04/30 06:16:43;;;;;;;20.20;18.10;;;;;;;10.29;59.17;98648.08;105213;1283;22628;-87
2022/04/30 06:19:11;;;;;;;20.30;18.20;;;;;;;10.39;59.01;98648.73;105255;1283;25478;-87
2022/04/30 06:21:40;;;;;;;21.90;19.30;;;;;;;10.52;59.04;98650.88;105399;1283;22598;-83
2022/04/30 06:24:08;;;;;;;21.90;19.50;;;;;;;10.61;58.87;98650.91;105160;1283;25373;-90
2022/04/30 06:26:36;;;;;;;19.50;17.50;;;;;;;10.68;58.73;98650.16;105394;1284;22504;-84
2022/04/30 06:29:03;;;;;;;18.30;16.30;;;;;;;10.73;58.62;98646.02;105403;1283;22578;-84
2022/04/30 06:31:31;;;;;;;18.60;16.60;;;;;;;10.81;58.36;98646.46;105429;1284;25408;-84
2022/04/30 06:33:59;;;;;;;19.30;14.80;;;;;;;10.87;58.25;98648.77;105387;1284;22869;-81
2022/04/30 06:36:29;;;;;;;20.00;14.30;;;;;;;10.96;58.37;98651.66;105357;1283;22758;-82
2022/04/30 06:38:57;;;;;;;16.20;14.50;;;;;;;11.05;57.90;98649.55;105425;1283;23426;-83
2022/04/30 06:41:25;;;;;;;16.20;14.40;;;;;;;11.12;57.75;98648.08;107045;1282;22646;-88
2022/04/30 06:43:53;;;;;;;16.60;13.20;;;;;;;11.22;57.71;98644.48;106894;1283;22504;-90
2022/04/30 06:46:21;;;;;;;16.40;13.90;;;;;;;11.32;57.57;98641.36;106571;1283;22641;-87
2022/04/30 06:48:49;;;;;;;16.80;13.30;;;;;;;11.46;57.44;98642.30;105064;1284;22565;-90
2022/04/30 06:51:17;;;;;;;18.60;14.40;;;;;;;11.57;57.21;98640.35;105279;1283;22560;-86
2022/04/30 06:59:18;;;;;;;17.00;14.50;;;;;;;11.89;56.65;98641.78;105640;1282;22705;-86
2022/04/30 07:01:53;;;;;;;24.40;14.20;;;;;;;12.02;56.53;98635.42;105444;1283;22825;-80
2022/04/30 07:04:24;;;;;;;21.40;14.80;;;;;;;12.17;56.40;98633.65;105083;1286;22694;-82
2022/04/30 07:06:52;;;;;;;18.60;15.90;;;;;;;12.31;56.18;98635.56;105598;1284;25335;-90
2022/04/30 07:09:20;;;;;;;18.40;15.60;;;;;;;12.44;56.02;98637.97;105507;1286;22665;-92
2022/04/30 07:11:48;;;;;;;17.00;12.30;;;;;;;12.59;55.69;98635.32;105511;1283;24476;-92
2022/04/30 07:14:21;;;;;;;12.10;9.30;;;;;;;12.74;55.47;98632.13;106757;1283;22676;-84
2022/04/30 07:16:49;;;;;;;12.10;8.20;;;;;;;12.90;54.58;98631.70;107955;1283;22578;-85
2022/04/30 07:19:44;;;;;;;12.50;8.00;;;;;;;13.00;54.32;98632.77;106098;1283;22560;-92
2022/04/30 07:22:13;;;;;;;11.10;7.50;;;;;;;13.13;53.77;98629.58;105407;1283;22553;-82
2022/04/30 07:24:40;;;;;;;12.20;8.10;;;;;;;13.24;53.65;98631.19;105357;1283;24237;-82
2022/04/30 07:27:09;;;;;;;10.00;7.50;;;;;;;13.31;53.25;98627.71;105390;1283;22560;-80
2022/04/30 07:29:38;;;;;;;12.80;6.90;;;;;;;13.39;52.99;98624.70;105483;1283;22710;-80
2022/04/30 07:32:08;;;;;;;9.00;7.80;;;;;;;13.48;52.39;98624.88;105484;1283;25310;-82
2022/04/30 07:34:36;;;;;;;8.90;6.70;;;;;;;13.55;51.77;98624.72;105528;1283;22564;-83
2022/04/30 07:37:10;;;;;;;11.40;6.60;;;;;;;13.65;51.69;98623.26;105448;1283;22694;-83
2022/04/30 07:39:39;;;;;;;9.80;7.00;;;;;;;13.77;51.48;98626.26;105539;1283;24454;-85
2022/04/30 07:42:08;;;;;;;9.50;6.80;;;;;;;13.89;51.39;98623.58;105754;1283;22752;-90
2022/04/30 07:44:35;;;;;;;9.20;7.20;;;;;;;13.98;50.93;98624.67;105377;1283;22592;-88
2022/04/30 07:47:04;;;;;;;12.30;7.90;;;;;;;14.06;50.54;98629.60;105686;1283;22665;-85
2022/04/30 07:49:32;;;;;;;9.00;8.00;;;;;;;14.16;50.31;98629.63;105948;1283;23045;-88
2022/04/30 07:51:59;;;;;;;9.60;8.20;;;;;;;14.25;49.60;98631.02;105514;1283;22577;-89
2022/04/30 07:54:27;;;;;;;10.30;7.80;;;;;;;14.32;49.52;98629.12;105544;1286;24290;-87
2022/04/30 07:56:57;;;;;;;8.60;7.70;;;;;;;14.36;49.28;98629.64;105544;1283;22888;-89
2022/04/30 07:59:25;;;;;;;10.10;7.80;;;;;;;14.40;48.46;98627.40;105555;1283;25956;-90
2022/04/30 08:01:53;;;;;;;11.40;8.50;;;;;;;14.47;48.48;98628.77;105707;1283;22755;-88
2022/04/30 08:04:21;;;;;;;10.20;7.60;;;;;;;14.56;48.25;98627.52;106157;1282;22863;-88
2022/04/30 08:06:49;;;;;;;9.00;7.60;;;;;;;14.66;47.02;98627.98;105455;1283;25751;-89
2022/04/30 08:09:17;;;;;;;9.60;7.70;;;;;;;14.76;47.52;98627.36;105467;1283;24281;-89
2022/04/30 08:11:45;;;;;;;8.10;7.30;;;;;;;14.85;47.16;98626.66;105591;1283;26635;-90
2022/04/30 08:14:13;;;;;;;10.10;7.60;;;;;;;14.96;47.23;98625.08;105645;1283;22553;-89
2022/04/30 08:16:41;;;;;;;9.50;7.60;;;;;;;15.04;46.75;98625.45;109003;1282;22720;-84
2022/04/30 08:19:08;;;;;;;8.40;6.90;;;;;;;15.11;47.00;98630.50;108628;1283;22554;-88
2022/04/30 08:21:37;;;;;;;8.70;7.30;;;;;;;15.18;46.27;98632.17;108391;1283;25799;-88
2022/04/30 08:24:25;;;;;;;10.00;7.00;;;;;;;15.23;46.02;98632.93;106812;1283;23154;-89
2022/04/30 08:26:53;;;;;;;13.20;7.80;;;;;;;15.32;46.13;98632.48;106823;1283;23009;-89
2022/04/30 08:29:21;;;;;;;9.40;7.20;;;;;;;15.48;45.51;98635.96;106489;1283;22587;-89
2022/04/30 08:31:49;;;;;;;8.40;7.60;;;;;;;15.53;44.37;98628.60;105979;1283;22699;-89
2022/04/30 08:34:18;;;;;;;8.20;7.30;;;;;;;15.61;44.97;98624.86;105681;1283;25417;-89
2022/04/30 08:36:46;;;;;;;7.90;7.10;;;;;;;15.69;44.14;98623.41;105547;1283;23350;-88
2022/04/30 08:39:13;;;;;;;10.40;7.50;;;;;;;15.72;44.42;98621.64;105623;1283;22571;-88
2022/04/30 08:41:42;;;;;;;8.00;6.60;;;;;;;15.77;44.32;98622.20;105521;1283;22573;-87
2022/04/30 08:44:15;;;;;;;9.70;7.00;;;;;;;15.84;43.84;98621.75;105352;1283;22884;-87
2022/04/30 08:46:44;;;;;;;9.90;7.20;;;;;;;15.86;43.82;98617.02;105428;1283;22610;-87
2022/04/30 08:49:12;;;;;;;8.00;7.20;;;;;;;15.94;43.71;98618.27;105456;1283;22618;-87
2022/04/30 08:51:40;;;;;;;12.60;7.20;;;;;;;15.97;43.68;98615.92;105450;1283;22735;-87
2022/04/30 08:54:08;;;;;;;10.80;7.20;;;;;;;16.04;42.87;98618.73;107317;1283;22716;-86
2022/04/30 08:56:36;;;;;;;10.40;7.50;;;;;;;16.02;42.50;98614.27;106842;1283;22586;-88
2022/04/30 08:59:05;;;;;;;11.80;7.70;;;;;;;16.06;42.85;98612.91;105475;1283;23043;-90
2022/04/30 09:01:50;;;;;;;11.40;7.30;;;;;;;16.12;41.95;98605.81;105395;1283;23943;-86
2022/04/30 09:04:19;;;;;;;8.60;7.00;;;;;;;16.14;42.18;98608.15;105444;1283;22625;-88
2022/04/30 09:06:49;;;;;;;9.00;7.80;;;;;;;16.18;42.15;98599.59;105178;1283;25421;-88
2022/04/30 09:09:29;;;;;;;20.10;7.70;;;;;;;16.24;41.61;98602.35;105343;1283;22652;-88
2022/04/30 09:12:08;;;;;;;8.40;7.40;;;;;;;16.25;41.01;98595.60;105573;1282;24398;-88
2022/04/30 09:14:42;;;;;;;8.30;7.40;;;;;;;16.32;41.36;98596.17;105349;1283;22567;-89
2022/04/30 09:17:12;;;;;;;;;;;;;;;16.50;41.40;98593.55;105714;1283;22550;-89
2022/04/30 09:19:56;;;;;;;9.70;8.00;;;;;;;16.67;41.29;98593.67;105464;1283;24407;-89
2022/04/30 09:22:30;;;;;;;10.00;8.00;;;;;;;16.85;41.15;98587.66;105392;1282;22670;-88
2022/04/30 09:25:00;;;;;;;8.80;7.80;;;;;;;16.98;40.99;98582.92;105502;1283;22560;-89
2022/04/30 09:27:51;;;;;;;11.70;7.50;;;;;;;17.09;40.31;98582.29;105491;1283;25461;-88
2022/04/30 09:30:25;;;;;;;8.80;7.80;;;;;;;17.15;40.18;98579.91;105383;1283;24326;-88
2022/04/30 09:32:59;;;;;;;9.00;6.90;;;;;;;17.30;40.51;98580.27;105528;1283;22617;-88
2022/04/30 09:38:14;;;;;;;9.80;8.40;;;;;;;17.41;39.46;98580.65;105441;1283;22560;-89
2022/04/30 09:40:53;;;;;;;11.20;8.10;;;;;;;17.35;39.16;98576.14;105669;1283;22501;-89
2022/04/30 09:43:29;;;;;;;11.30;7.70;;;;;;;17.37;39.12;98573.96;105876;1283;22577;-89
2022/04/30 09:46:06;;;;;;;11.00;8.00;;;;;;;17.27;37.34;98569.73;105991;1283;22562;-89
2022/04/30 09:54:08;;;;;;;10.80;8.60;;;;;;;17.16;38.13;98566.18;105729;1283;22561;-88
2022/04/30 09:56:39;;;;;;;9.80;7.90;;;;;;;17.41;38.40;98558.78;106040;1283;22756;-90
2022/04/30 09:59:12;;;;;;;9.70;7.90;;;;;;;17.62;38.08;98557.77;105815;1283;22483;-90
2022/04/30 10:01:42;;;;;;;8.50;7.60;;;;;;;17.82;37.97;98555.73;105769;1283;24295;-89
2022/04/30 10:04:12;;;;;;;11.90;8.30;;;;;;;18.07;37.58;98549.85;105788;1283;24286;-88
2022/04/30 10:06:45;;;;;;;9.60;8.50;;;;;;;18.22;37.10;98545.35;105607;1283;22623;-90
2022/04/30 10:09:30;;;;;;;10.10;8.10;;;;;;;18.34;37.59;98553.77;105779;1283;22566;-88
2022/04/30 10:12:16;;;;;;;10.30;7.70;;;;;;;18.41;36.84;98548.98;105937;1283;22702;-88
2022/04/30 10:15:25;;;;;;;10.60;7.40;;;;;;;18.39;36.83;98547.46;105790;1283;22569;-87
2022/04/30 10:17:54;;;;;;;;;;;;;;;18.38;36.85;98543.84;105534;1283;236123;-88
2022/04/30 10:20:46;;;;;;;9.70;8.00;;;;;;;18.35;37.19;98543.83;105504;1283;22560;-87
2022/04/30 10:23:16;;;;;;;8.60;6.90;;;;;;;18.34;36.64;98543.84;105595;1283;23337;-88
2022/04/30 10:25:46;;;;;;;8.60;7.60;;;;;;;18.36;36.70;98543.38;105525;1283;23945;-88
2022/04/30 10:28:14;;;;;;;10.90;7.00;;;;;;;18.41;36.67;98541.29;105431;1283;22548;-88
2022/04/30 10:30:43;;;;;;;9.70;7.10;;;;;;;18.41;35.79;98541.46;105478;1283;25248;-88
2022/04/30 10:33:12;;;;;;;9.50;6.80;;;;;;;18.43;36.34;98537.06;107328;1283;22668;-86
2022/04/30 10:35:43;;;;;;;8.00;7.00;;;;;;;18.41;35.45;98533.52;106793;1283;22608;-88
2022/04/30 10:38:21;;;;;;;9.20;7.10;;;;;;;18.25;35.68;98531.19;105539;1283;22562;-89
2022/04/30 10:40:57;;;;;;;9.40;7.30;;;;;;;18.04;34.65;98532.39;105455;1283;23106;-88
2022/04/30 10:43:37;;;;;;;8.00;7.00;;;;;;;17.82;34.98;98529.12;105406;1283;22586;-88
2022/04/30 10:46:06;;;;;;;7.80;6.80;;;;;;;17.79;35.26;98523.84;105396;1283;22541;-87
2022/04/30 10:48:35;;;;;;;11.30;7.00;;;;;;;17.92;34.42;98522.96;105463;1283;25430;-87
2022/04/30 10:51:15;;;;;;;8.90;7.30;;;;;;;17.87;33.75;98523.64;105441;1283;23233;-88
2022/04/30 10:53:46;;;;;;;8.60;6.50;;;;;;;17.74;33.49;98518.99;105532;1283;22641;-90
2022/04/30 10:56:15;;;;;;;9.50;7.10;;;;;;;17.49;32.38;98517.08;105596;1283;23615;-89
2022/04/30 10:58:43;;;;;;;9.00;6.00;;;;;;;17.19;32.82;98513.15;105487;1283;24470;-88
2022/04/30 11:01:16;;;;;;;7.80;6.90;;;;;;;17.09;33.02;98513.62;105296;1284;22877;-88
2022/04/30 11:03:47;;;;;;;9.50;6.50;;;;;;;17.07;33.76;98514.45;105436;1283;22547;-88
2022/04/30 11:06:20;;;;;;;9.70;6.60;;;;;;;17.11;33.45;98510.02;105545;1283;25454;-88
2022/04/30 11:09:04;;;;;;;8.90;6.50;;;;;;;17.18;33.98;98502.52;105583;1283;25355;-88
2022/04/30 11:11:34;;;;;;;7.70;5.80;;;;;;;17.31;34.16;98502.17;105569;1283;25402;-88
2022/04/30 11:14:03;;;;;;;9.50;5.60;;;;;;;17.36;33.34;98504.03;105488;1283;22654;-87
2022/04/30 11:16:34;;;;;;;9.30;6.10;;;;;;;17.40;33.97;98505.65;105542;1283;22563;-88
2022/04/30 11:19:07;;;;;;;9.10;6.90;;;;;;;17.50;34.23;98502.27;105763;1283;25353;-89
2022/04/30 11:21:53;;;;;;;10.00;5.80;;;;;;;17.63;34.32;98501.05;105511;1283;25441;-89
2022/04/30 11:24:24;;;;;;;8.70;6.20;;;;;;;17.74;34.30;98497.09;105480;1283;24276;-89
2022/04/30 11:27:05;;;;;;;10.00;6.40;;;;;;;17.83;34.12;98497.86;105444;1283;22563;-88
2022/04/30 11:29:35;;;;;;;7.80;6.00;;;;;;;17.83;33.91;98499.02;105432;1283;23288;-87
2022/04/30 11:32:05;;;;;;;9.30;6.00;;;;;;;17.80;34.12;98495.35;105547;1283;24437;-88
2022/04/30 11:34:33;;;;;;;11.30;6.80;;;;;;;17.82;33.99;98498.30;105458;1283;26009;-86
2022/04/30 11:37:01;;;;;;;8.80;6.00;;;;;;;17.86;33.98;98499.44;105645;1283;22573;-88
2022/04/30 11:39:29;;;;;;;7.70;5.50;;;;;;;17.87;33.98;98494.61;105442;1283;22557;-89
2022/04/30 11:41:59;;;;;;;7.20;6.00;;;;;;;17.95;34.06;98492.86;105644;1283;22716;-89
2022/04/30 11:44:27;;;;;;;8.80;6.00;;;;;;;18.06;33.91;98492.02;105963;1283;22497;-89
2022/04/30 11:46:56;;;;;;;8.20;5.70;;;;;;;18.09;33.93;98489.55;106135;1283;22778;-86
2022/04/30 11:49:26;;;;;;;12.40;6.30;;;;;;;18.12;33.50;98487.26;105502;1283;22718;-88
2022/04/30 11:52:11;;;;;;;9.70;5.80;;;;;;;18.12;33.55;98486.46;105312;1284;22655;-88
2022/04/30 11:54:41;;;;;;;12.30;7.20;;;;;;;18.15;33.91;98483.46;105794;1283;22590;-88
2022/04/30 11:57:09;;;;;;;9.00;6.20;;;;;;;18.11;32.97;98479.96;106137;1283;24286;-88
2022/04/30 11:59:39;;;;;;;10.50;6.20;;;;;;;17.86;32.60;98479.12;105760;1283;25465;-88
2022/04/30 12:02:09;;;;;;;7.80;5.50;;;;;;;17.70;32.71;98479.98;105454;1283;22580;-87
2022/04/30 12:04:42;;;;;;;10.20;6.20;;;;;;;17.61;32.44;98479.17;105501;1283;22677;-90
2022/04/30 12:07:13;;;;;;;7.60;5.40;;;;;;;17.54;32.96;98474.16;105432;1283;23022;-89
2022/04/30 12:09:46;;;;;;;9.40;8.40;;;;;;;17.54;33.05;98473.14;105645;1283;22552;-87
2022/04/30 12:12:22;;;;;;;;;;;;;;;17.59;33.14;98468.20;106583;1283;22606;-90